sensor_id;sensor_type;location;lat;lon;timestamp;P1;durP1;ratioP1;P2;durP2;ratioP2
10985;SDS011;5546;48.714;8.738;2023-08-30T00:02:17;7.10;;;6.23;;
10985;SDS011;5546;48.714;8.738;2023-08-30T00:04:43;7.70;;;6.90;;
10985;SDS011;5546;48.714;8.738;2023-08-30T00:07:08;7.30;;;6.60;;
10985;SDS011;5546;48.714;8.738;2023-08-30T00:09:35;7.53;;;6.43;;
10985;SDS011;5546;48.714;8.738;2023-08-30T00:12:01;6.87;;;6.00;;
10985;SDS011;5546;48.714;8.738;2023-08-30T00:14:27;8.67;;;6.80;;
10985;SDS011;5546;48.714;8.738;2023-08-30T00:16:53;6.73;;;5.80;;
10985;SDS011;5546;48.714;8.738;2023-08-30T00:19:18;7.83;;;7.23;;
10985;SDS011;5546;48.714;8.738;2023-08-30T00:21:44;9.07;;;6.90;;
10985;SDS011;5546;48.714;8.738;2023-08-30T00:24:09;8.70;;;7.40;;
10985;SDS011;5546;48.714;8.738;2023-08-30T00:26:35;7.40;;;6.83;;
10985;SDS011;5546;48.714;8.738;2023-08-30T00:29:00;8.23;;;7.00;;
10985;SDS011;5546;48.714;8.738;2023-08-30T00:31:26;6.87;;;6.37;;
10985;SDS011;5546;48.714;8.738;2023-08-30T00:33:51;6.93;;;6.33;;
10985;SDS011;5546;48.714;8.738;2023-08-30T00:36:17;7.07;;;6.47;;
10985;SDS011;5546;48.714;8.738;2023-08-30T00:38:43;11.70;;;6.70;;
10985;SDS011;5546;48.714;8.738;2023-08-30T00:41:09;6.87;;;5.83;;
10985;SDS011;5546;48.714;8.738;2023-08-30T00:43:35;6.70;;;5.57;;
10985;SDS011;5546;48.714;8.738;2023-08-30T00:46:00;6.20;;;5.60;;
10985;SDS011;5546;48.714;8.738;2023-08-30T00:48:26;5.97;;;5.47;;
10985;SDS011;5546;48.714;8.738;2023-08-30T00:50:52;5.80;;;5.23;;
10985;SDS011;5546;48.714;8.738;2023-08-30T00:53:17;5.83;;;5.33;;
10985;SDS011;5546;48.714;8.738;2023-08-30T00:55:43;5.83;;;5.33;;
10985;SDS011;5546;48.714;8.738;2023-08-30T00:58:09;6.17;;;5.67;;
10985;SDS011;5546;48.714;8.738;2023-08-30T01:00:35;5.50;;;5.00;;
10985;SDS011;5546;48.714;8.738;2023-08-30T01:03:01;5.53;;;5.13;;
10985;SDS011;5546;48.714;8.738;2023-08-30T01:05:30;6.90;;;5.60;;
10985;SDS011;5546;48.714;8.738;2023-08-30T01:07:56;5.57;;;5.17;;
10985;SDS011;5546;48.714;8.738;2023-08-30T01:10:22;6.60;;;5.90;;
10985;SDS011;5546;48.714;8.738;2023-08-30T01:12:57;9.40;;;5.50;;
10985;SDS011;5546;48.714;8.738;2023-08-30T01:15:30;5.97;;;5.47;;
10985;SDS011;5546;48.714;8.738;2023-08-30T01:17:57;7.80;;;5.73;;
10985;SDS011;5546;48.714;8.738;2023-08-30T01:20:24;6.90;;;6.30;;
10985;SDS011;5546;48.714;8.738;2023-08-30T01:22:55;7.70;;;5.70;;
10985;SDS011;5546;48.714;8.738;2023-08-30T01:25:27;9.33;;;6.73;;
10985;SDS011;5546;48.714;8.738;2023-08-30T01:28:19;6.87;;;6.27;;
10985;SDS011;5546;48.714;8.738;2023-08-30T01:30:48;9.90;;;7.00;;
10985;SDS011;5546;48.714;8.738;2023-08-30T01:33:14;6.93;;;6.27;;
10985;SDS011;5546;48.714;8.738;2023-08-30T01:35:41;8.23;;;5.33;;
10985;SDS011;5546;48.714;8.738;2023-08-30T01:38:08;5.33;;;4.67;;
10985;SDS011;5546;48.714;8.738;2023-08-30T01:40:38;4.90;;;4.50;;
10985;SDS011;5546;48.714;8.738;2023-08-30T01:43:06;5.13;;;4.63;;
10985;SDS011;5546;48.714;8.738;2023-08-30T01:45:34;7.67;;;5.57;;
10985;SDS011;5546;48.714;8.738;2023-08-30T01:48:01;5.63;;;4.97;;
10985;SDS011;5546;48.714;8.738;2023-08-30T01:50:28;5.30;;;4.80;;
10985;SDS011;5546;48.714;8.738;2023-08-30T01:52:55;7.93;;;5.40;;
10985;SDS011;5546;48.714;8.738;2023-08-30T01:55:22;7.57;;;6.67;;
10985;SDS011;5546;48.714;8.738;2023-08-30T01:57:48;6.03;;;5.20;;
10985;SDS011;5546;48.714;8.738;2023-08-30T02:00:14;6.97;;;6.37;;
10985;SDS011;5546;48.714;8.738;2023-08-30T02:02:39;7.83;;;5.90;;
10985;SDS011;5546;48.714;8.738;2023-08-30T02:05:05;8.00;;;5.87;;
10985;SDS011;5546;48.714;8.738;2023-08-30T02:07:40;6.60;;;6.00;;
10985;SDS011;5546;48.714;8.738;2023-08-30T02:10:17;5.70;;;5.20;;
10985;SDS011;5546;48.714;8.738;2023-08-30T02:13:06;6.33;;;5.53;;
10985;SDS011;5546;48.714;8.738;2023-08-30T02:15:33;6.20;;;5.70;;
10985;SDS011;5546;48.714;8.738;2023-08-30T02:18:00;6.70;;;5.30;;
10985;SDS011;5546;48.714;8.738;2023-08-30T02:20:28;7.97;;;5.80;;
10985;SDS011;5546;48.714;8.738;2023-08-30T02:22:57;5.60;;;5.10;;
10985;SDS011;5546;48.714;8.738;2023-08-30T02:25:24;5.73;;;5.03;;
10985;SDS011;5546;48.714;8.738;2023-08-30T02:27:49;5.40;;;4.90;;
10985;SDS011;5546;48.714;8.738;2023-08-30T02:30:15;5.50;;;5.10;;
10985;SDS011;5546;48.714;8.738;2023-08-30T02:32:40;5.30;;;4.90;;
10985;SDS011;5546;48.714;8.738;2023-08-30T02:35:06;5.20;;;4.80;;
10985;SDS011;5546;48.714;8.738;2023-08-30T02:37:32;4.63;;;4.10;;
10985;SDS011;5546;48.714;8.738;2023-08-30T02:39:57;6.57;;;4.90;;
10985;SDS011;5546;48.714;8.738;2023-08-30T02:42:22;4.87;;;4.37;;
10985;SDS011;5546;48.714;8.738;2023-08-30T02:44:48;6.63;;;4.27;;
10985;SDS011;5546;48.714;8.738;2023-08-30T02:47:13;4.37;;;4.03;;
10985;SDS011;5546;48.714;8.738;2023-08-30T02:49:39;6.33;;;4.20;;
10985;SDS011;5546;48.714;8.738;2023-08-30T02:52:05;4.93;;;4.07;;
10985;SDS011;5546;48.714;8.738;2023-08-30T02:54:30;4.30;;;4.00;;
10985;SDS011;5546;48.714;8.738;2023-08-30T02:56:56;4.63;;;4.07;;
10985;SDS011;5546;48.714;8.738;2023-08-30T02:59:21;6.67;;;3.93;;
10985;SDS011;5546;48.714;8.738;2023-08-30T03:01:47;4.77;;;4.00;;
10985;SDS011;5546;48.714;8.738;2023-08-30T03:04:12;7.83;;;3.83;;
10985;SDS011;5546;48.714;8.738;2023-08-30T03:06:38;4.33;;;3.70;;
10985;SDS011;5546;48.714;8.738;2023-08-30T03:09:03;5.23;;;3.70;;
10985;SDS011;5546;48.714;8.738;2023-08-30T03:11:31;5.30;;;3.87;;
10985;SDS011;5546;48.714;8.738;2023-08-30T03:13:56;4.00;;;3.60;;
10985;SDS011;5546;48.714;8.738;2023-08-30T03:16:22;3.50;;;3.20;;
10985;SDS011;5546;48.714;8.738;2023-08-30T03:18:47;3.87;;;3.47;;
10985;SDS011;5546;48.714;8.738;2023-08-30T03:21:14;5.03;;;3.90;;
10985;SDS011;5546;48.714;8.738;2023-08-30T03:23:40;3.83;;;3.53;;
10985;SDS011;5546;48.714;8.738;2023-08-30T03:26:13;4.60;;;3.40;;
10985;SDS011;5546;48.714;8.738;2023-08-30T03:28:40;4.00;;;3.70;;
10985;SDS011;5546;48.714;8.738;2023-08-30T03:31:16;4.07;;;3.77;;
10985;SDS011;5546;48.714;8.738;2023-08-30T03:33:43;7.40;;;3.73;;
10985;SDS011;5546;48.714;8.738;2023-08-30T03:36:12;6.27;;;4.07;;
10985;SDS011;5546;48.714;8.738;2023-08-30T03:38:39;7.70;;;3.70;;
10985;SDS011;5546;48.714;8.738;2023-08-30T03:41:04;4.80;;;4.40;;
10985;SDS011;5546;48.714;8.738;2023-08-30T03:43:30;4.60;;;4.30;;
10985;SDS011;5546;48.714;8.738;2023-08-30T03:45:57;5.40;;;4.90;;
10985;SDS011;5546;48.714;8.738;2023-08-30T03:48:26;4.83;;;4.43;;
10985;SDS011;5546;48.714;8.738;2023-08-30T03:50:52;5.43;;;4.17;;
10985;SDS011;5546;48.714;8.738;2023-08-30T03:53:19;4.97;;;4.57;;
10985;SDS011;5546;48.714;8.738;2023-08-30T03:55:45;4.50;;;4.20;;
10985;SDS011;5546;48.714;8.738;2023-08-30T03:58:10;4.50;;;4.07;;
10985;SDS011;5546;48.714;8.738;2023-08-30T04:00:37;4.93;;;3.97;;
10985;SDS011;5546;48.714;8.738;2023-08-30T04:03:03;4.67;;;4.07;;
10985;SDS011;5546;48.714;8.738;2023-08-30T04:05:33;4.43;;;4.03;;
10985;SDS011;5546;48.714;8.738;2023-08-30T04:07:59;4.50;;;4.17;;
10985;SDS011;5546;48.714;8.738;2023-08-30T04:10:24;9.40;;;4.47;;
10985;SDS011;5546;48.714;8.738;2023-08-30T04:12:50;4.40;;;4.07;;
10985;SDS011;5546;48.714;8.738;2023-08-30T04:15:15;4.30;;;3.90;;
10985;SDS011;5546;48.714;8.738;2023-08-30T04:17:41;4.40;;;4.00;;
10985;SDS011;5546;48.714;8.738;2023-08-30T04:20:07;4.83;;;4.40;;
10985;SDS011;5546;48.714;8.738;2023-08-30T04:22:35;4.40;;;4.10;;
10985;SDS011;5546;48.714;8.738;2023-08-30T04:25:01;5.33;;;3.80;;
10985;SDS011;5546;48.714;8.738;2023-08-30T04:27:26;4.20;;;3.90;;
10985;SDS011;5546;48.714;8.738;2023-08-30T04:29:52;4.80;;;4.10;;
10985;SDS011;5546;48.714;8.738;2023-08-30T04:32:18;4.60;;;4.30;;
10985;SDS011;5546;48.714;8.738;2023-08-30T04:34:43;5.10;;;4.70;;
10985;SDS011;5546;48.714;8.738;2023-08-30T04:37:09;5.10;;;4.70;;
10985;SDS011;5546;48.714;8.738;2023-08-30T04:39:34;4.20;;;3.90;;
10985;SDS011;5546;48.714;8.738;2023-08-30T04:42:00;4.63;;;4.20;;
10985;SDS011;5546;48.714;8.738;2023-08-30T04:44:27;5.70;;;4.53;;
10985;SDS011;5546;48.714;8.738;2023-08-30T04:46:53;4.63;;;4.23;;
10985;SDS011;5546;48.714;8.738;2023-08-30T04:49:19;6.77;;;4.37;;
10985;SDS011;5546;48.714;8.738;2023-08-30T04:51:45;5.10;;;4.60;;
10985;SDS011;5546;48.714;8.738;2023-08-30T04:54:10;5.50;;;4.40;;
10985;SDS011;5546;48.714;8.738;2023-08-30T04:56:36;5.10;;;4.27;;
10985;SDS011;5546;48.714;8.738;2023-08-30T04:59:01;4.90;;;4.33;;
10985;SDS011;5546;48.714;8.738;2023-08-30T05:01:29;8.90;;;4.50;;
10985;SDS011;5546;48.714;8.738;2023-08-30T05:03:55;4.97;;;4.57;;
10985;SDS011;5546;48.714;8.738;2023-08-30T05:06:20;5.00;;;4.50;;
10985;SDS011;5546;48.714;8.738;2023-08-30T05:08:46;4.93;;;4.50;;
10985;SDS011;5546;48.714;8.738;2023-08-30T05:11:11;5.30;;;4.90;;
10985;SDS011;5546;48.714;8.738;2023-08-30T05:13:37;5.20;;;4.80;;
10985;SDS011;5546;48.714;8.738;2023-08-30T05:16:03;5.30;;;4.17;;
10985;SDS011;5546;48.714;8.738;2023-08-30T05:18:28;6.77;;;3.90;;
10985;SDS011;5546;48.714;8.738;2023-08-30T05:20:54;4.57;;;4.13;;
10985;SDS011;5546;48.714;8.738;2023-08-30T05:23:19;5.23;;;4.43;;
10985;SDS011;5546;48.714;8.738;2023-08-30T05:25:45;4.83;;;4.43;;
10985;SDS011;5546;48.714;8.738;2023-08-30T05:28:11;4.80;;;4.40;;
10985;SDS011;5546;48.714;8.738;2023-08-30T05:30:38;4.27;;;3.97;;
10985;SDS011;5546;48.714;8.738;2023-08-30T05:33:06;4.97;;;4.50;;
10985;SDS011;5546;48.714;8.738;2023-08-30T05:35:32;3.83;;;3.53;;
10985;SDS011;5546;48.714;8.738;2023-08-30T05:37:58;4.17;;;3.30;;
10985;SDS011;5546;48.714;8.738;2023-08-30T05:40:23;4.10;;;3.63;;
10985;SDS011;5546;48.714;8.738;2023-08-30T05:42:49;3.60;;;3.33;;
10985;SDS011;5546;48.714;8.738;2023-08-30T05:45:15;4.10;;;3.77;;
10985;SDS011;5546;48.714;8.738;2023-08-30T05:47:41;3.80;;;3.37;;
10985;SDS011;5546;48.714;8.738;2023-08-30T05:50:06;5.27;;;3.60;;
10985;SDS011;5546;48.714;8.738;2023-08-30T05:52:32;4.33;;;3.67;;
10985;SDS011;5546;48.714;8.738;2023-08-30T05:54:58;3.90;;;3.37;;
10985;SDS011;5546;48.714;8.738;2023-08-30T05:57:23;6.37;;;4.10;;
10985;SDS011;5546;48.714;8.738;2023-08-30T05:59:50;5.07;;;3.27;;
10985;SDS011;5546;48.714;8.738;2023-08-30T06:02:16;3.47;;;3.13;;
10985;SDS011;5546;48.714;8.738;2023-08-30T06:04:41;3.50;;;3.20;;
10985;SDS011;5546;48.714;8.738;2023-08-30T06:07:07;5.83;;;3.30;;
10985;SDS011;5546;48.714;8.738;2023-08-30T06:09:33;3.70;;;3.40;;
10985;SDS011;5546;48.714;8.738;2023-08-30T06:11:58;3.70;;;3.40;;
10985;SDS011;5546;48.714;8.738;2023-08-30T06:14:24;3.73;;;2.77;;
10985;SDS011;5546;48.714;8.738;2023-08-30T06:16:50;3.30;;;3.10;;
10985;SDS011;5546;48.714;8.738;2023-08-30T06:19:16;5.07;;;3.10;;
10985;SDS011;5546;48.714;8.738;2023-08-30T06:21:41;3.83;;;3.53;;
10985;SDS011;5546;48.714;8.738;2023-08-30T06:24:07;4.07;;;3.77;;
10985;SDS011;5546;48.714;8.738;2023-08-30T06:26:32;3.30;;;3.10;;
10985;SDS011;5546;48.714;8.738;2023-08-30T06:28:58;4.57;;;3.10;;
10985;SDS011;5546;48.714;8.738;2023-08-30T06:31:23;3.30;;;3.10;;
10985;SDS011;5546;48.714;8.738;2023-08-30T06:33:49;3.80;;;3.40;;
10985;SDS011;5546;48.714;8.738;2023-08-30T06:36:15;3.87;;;3.57;;
10985;SDS011;5546;48.714;8.738;2023-08-30T06:38:42;4.00;;;3.50;;
10985;SDS011;5546;48.714;8.738;2023-08-30T06:41:08;3.73;;;3.10;;
10985;SDS011;5546;48.714;8.738;2023-08-30T06:43:34;3.80;;;3.30;;
10985;SDS011;5546;48.714;8.738;2023-08-30T06:45:59;3.70;;;3.30;;
10985;SDS011;5546;48.714;8.738;2023-08-30T06:48:25;3.43;;;3.10;;
10985;SDS011;5546;48.714;8.738;2023-08-30T06:50:51;3.37;;;3.10;;
10985;SDS011;5546;48.714;8.738;2023-08-30T06:53:16;3.20;;;2.90;;
10985;SDS011;5546;48.714;8.738;2023-08-30T06:55:42;3.10;;;2.80;;
10985;SDS011;5546;48.714;8.738;2023-08-30T06:58:07;5.63;;;3.07;;
10985;SDS011;5546;48.714;8.738;2023-08-30T07:00:33;3.17;;;2.93;;
10985;SDS011;5546;48.714;8.738;2023-08-30T07:02:59;4.43;;;2.90;;
10985;SDS011;5546;48.714;8.738;2023-08-30T07:05:24;4.10;;;3.30;;
10985;SDS011;5546;48.714;8.738;2023-08-30T07:07:50;2.93;;;2.70;;
10985;SDS011;5546;48.714;8.738;2023-08-30T07:10:15;3.60;;;3.10;;
10985;SDS011;5546;48.714;8.738;2023-08-30T07:12:41;3.40;;;2.90;;
10985;SDS011;5546;48.714;8.738;2023-08-30T07:15:07;4.37;;;3.10;;
10985;SDS011;5546;48.714;8.738;2023-08-30T07:17:33;3.63;;;3.10;;
10985;SDS011;5546;48.714;8.738;2023-08-30T07:19:58;4.20;;;3.40;;
10985;SDS011;5546;48.714;8.738;2023-08-30T07:22:24;3.23;;;2.93;;
10985;SDS011;5546;48.714;8.738;2023-08-30T07:24:50;6.40;;;3.20;;
10985;SDS011;5546;48.714;8.738;2023-08-30T07:27:16;4.60;;;2.87;;
10985;SDS011;5546;48.714;8.738;2023-08-30T07:29:41;3.40;;;3.20;;
10985;SDS011;5546;48.714;8.738;2023-08-30T07:32:08;3.57;;;3.27;;
10985;SDS011;5546;48.714;8.738;2023-08-30T07:34:33;3.60;;;3.30;;
10985;SDS011;5546;48.714;8.738;2023-08-30T07:36:59;4.73;;;3.03;;
10985;SDS011;5546;48.714;8.738;2023-08-30T07:39:24;3.27;;;3.07;;
10985;SDS011;5546;48.714;8.738;2023-08-30T07:41:50;3.00;;;2.80;;
10985;SDS011;5546;48.714;8.738;2023-08-30T07:44:16;3.83;;;2.90;;
10985;SDS011;5546;48.714;8.738;2023-08-30T07:46:41;4.17;;;3.87;;
10985;SDS011;5546;48.714;8.738;2023-08-30T07:49:07;3.60;;;3.30;;
10985;SDS011;5546;48.714;8.738;2023-08-30T07:51:33;3.77;;;3.47;;
10985;SDS011;5546;48.714;8.738;2023-08-30T07:53:58;3.83;;;3.30;;
10985;SDS011;5546;48.714;8.738;2023-08-30T07:56:24;3.27;;;2.97;;
10985;SDS011;5546;48.714;8.738;2023-08-30T07:58:49;5.67;;;3.20;;
10985;SDS011;5546;48.714;8.738;2023-08-30T08:01:15;4.07;;;3.10;;
10985;SDS011;5546;48.714;8.738;2023-08-30T08:03:40;3.60;;;3.30;;
10985;SDS011;5546;48.714;8.738;2023-08-30T08:06:06;4.17;;;2.87;;
10985;SDS011;5546;48.714;8.738;2023-08-30T08:08:32;3.97;;;3.17;;
10985;SDS011;5546;48.714;8.738;2023-08-30T08:11:00;3.70;;;3.40;;
10985;SDS011;5546;48.714;8.738;2023-08-30T08:13:27;3.57;;;3.27;;
10985;SDS011;5546;48.714;8.738;2023-08-30T08:15:55;5.90;;;3.13;;
10985;SDS011;5546;48.714;8.738;2023-08-30T08:18:21;3.23;;;2.93;;
10985;SDS011;5546;48.714;8.738;2023-08-30T08:20:47;3.00;;;2.80;;
10985;SDS011;5546;48.714;8.738;2023-08-30T08:23:12;3.97;;;2.80;;
10985;SDS011;5546;48.714;8.738;2023-08-30T08:25:38;3.10;;;2.87;;
10985;SDS011;5546;48.714;8.738;2023-08-30T08:28:03;3.50;;;3.20;;
10985;SDS011;5546;48.714;8.738;2023-08-30T08:30:29;3.08;;;2.78;;
10985;SDS011;5546;48.714;8.738;2023-08-30T08:32:54;3.22;;;2.78;;
10985;SDS011;5546;48.714;8.738;2023-08-30T08:35:21;3.05;;;2.83;;
10985;SDS011;5546;48.714;8.738;2023-08-30T08:37:46;2.85;;;2.65;;
10985;SDS011;5546;48.714;8.738;2023-08-30T08:40:12;3.75;;;3.10;;
10985;SDS011;5546;48.714;8.738;2023-08-30T08:42:37;3.30;;;3.00;;
10985;SDS011;5546;48.714;8.738;2023-08-30T08:45:03;3.55;;;2.45;;
10985;SDS011;5546;48.714;8.738;2023-08-30T08:47:29;3.67;;;2.45;;
10985;SDS011;5546;48.714;8.738;2023-08-30T08:49:55;2.75;;;2.33;;
10985;SDS011;5546;48.714;8.738;2023-08-30T08:52:21;2.58;;;2.20;;
10985;SDS011;5546;48.714;8.738;2023-08-30T08:54:51;2.38;;;2.20;;
10985;SDS011;5546;48.714;8.738;2023-08-30T08:57:19;2.88;;;2.17;;
10985;SDS011;5546;48.714;8.738;2023-08-30T08:59:45;2.40;;;2.20;;
10985;SDS011;5546;48.714;8.738;2023-08-30T09:02:14;3.13;;;2.03;;
10985;SDS011;5546;48.714;8.738;2023-08-30T09:04:40;2.65;;;2.10;;
10985;SDS011;5546;48.714;8.738;2023-08-30T09:07:06;2.83;;;2.10;;
10985;SDS011;5546;48.714;8.738;2023-08-30T09:09:32;2.55;;;2.30;;
10985;SDS011;5546;48.714;8.738;2023-08-30T09:11:59;2.00;;;1.90;;
10985;SDS011;5546;48.714;8.738;2023-08-30T09:14:24;2.15;;;1.95;;
10985;SDS011;5546;48.714;8.738;2023-08-30T09:17:00;4.25;;;2.35;;
10985;SDS011;5546;48.714;8.738;2023-08-30T09:19:27;4.00;;;2.20;;
10985;SDS011;5546;48.714;8.738;2023-08-30T09:21:53;3.08;;;2.17;;
10985;SDS011;5546;48.714;8.738;2023-08-30T09:24:19;3.38;;;2.20;;
10985;SDS011;5546;48.714;8.738;2023-08-30T09:26:49;3.88;;;2.13;;
10985;SDS011;5546;48.714;8.738;2023-08-30T09:29:17;2.58;;;2.03;;
10985;SDS011;5546;48.714;8.738;2023-08-30T09:31:44;5.13;;;2.10;;
10985;SDS011;5546;48.714;8.738;2023-08-30T09:34:10;2.50;;;2.30;;
10985;SDS011;5546;48.714;8.738;2023-08-30T09:36:36;2.78;;;2.58;;
10985;SDS011;5546;48.714;8.738;2023-08-30T09:39:10;2.28;;;2.08;;
10985;SDS011;5546;48.714;8.738;2023-08-30T09:41:37;3.05;;;2.28;;
10985;SDS011;5546;48.714;8.738;2023-08-30T09:46:42;3.13;;;2.08;;
10985;SDS011;5546;48.714;8.738;2023-08-30T09:49:12;2.33;;;1.98;;
10985;SDS011;5546;48.714;8.738;2023-08-30T09:51:38;3.53;;;2.30;;
10985;SDS011;5546;48.714;8.738;2023-08-30T09:54:10;3.22;;;1.80;;
10985;SDS011;5546;48.714;8.738;2023-08-30T09:56:45;2.30;;;2.10;;
10985;SDS011;5546;48.714;8.738;2023-08-30T09:59:12;3.20;;;2.10;;
10985;SDS011;5546;48.714;8.738;2023-08-30T10:01:40;3.55;;;2.40;;
10985;SDS011;5546;48.714;8.738;2023-08-30T10:04:07;2.10;;;1.90;;
10985;SDS011;5546;48.714;8.738;2023-08-30T10:06:39;2.30;;;2.10;;
10985;SDS011;5546;48.714;8.738;2023-08-30T10:09:05;2.05;;;1.92;;
10985;SDS011;5546;48.714;8.738;2023-08-30T10:11:33;2.20;;;2.00;;
10985;SDS011;5546;48.714;8.738;2023-08-30T10:14:02;2.50;;;2.22;;
10985;SDS011;5546;48.714;8.738;2023-08-30T10:16:30;2.50;;;2.30;;
10985;SDS011;5546;48.714;8.738;2023-08-30T10:19:02;2.40;;;2.20;;
10985;SDS011;5546;48.714;8.738;2023-08-30T10:21:40;2.50;;;2.30;;
10985;SDS011;5546;48.714;8.738;2023-08-30T10:24:12;3.38;;;2.38;;
10985;SDS011;5546;48.714;8.738;2023-08-30T10:26:42;2.70;;;2.50;;
10985;SDS011;5546;48.714;8.738;2023-08-30T10:29:10;3.10;;;2.80;;
10985;SDS011;5546;48.714;8.738;2023-08-30T10:31:38;7.10;;;3.30;;
10985;SDS011;5546;48.714;8.738;2023-08-30T10:34:11;8.32;;;3.40;;
10985;SDS011;5546;48.714;8.738;2023-08-30T10:36:55;5.28;;;3.53;;
10985;SDS011;5546;48.714;8.738;2023-08-30T10:39:41;7.20;;;4.22;;
10985;SDS011;5546;48.714;8.738;2023-08-30T10:42:11;5.38;;;4.25;;
10985;SDS011;5546;48.714;8.738;2023-08-30T10:44:56;9.13;;;4.57;;
10985;SDS011;5546;48.714;8.738;2023-08-30T10:47:24;6.47;;;4.80;;
10985;SDS011;5546;48.714;8.738;2023-08-30T10:49:53;9.30;;;5.07;;
10985;SDS011;5546;48.714;8.738;2023-08-30T10:52:23;9.53;;;5.67;;
10985;SDS011;5546;48.714;8.738;2023-08-30T10:54:50;5.57;;;5.07;;
10985;SDS011;5546;48.714;8.738;2023-08-30T10:57:35;6.63;;;5.50;;
10985;SDS011;5546;48.714;8.738;2023-08-30T11:00:07;7.13;;;6.00;;
10985;SDS011;5546;48.714;8.738;2023-08-30T11:02:43;7.80;;;5.30;;
10985;SDS011;5546;48.714;8.738;2023-08-30T11:05:11;7.00;;;5.20;;
10985;SDS011;5546;48.714;8.738;2023-08-30T11:07:36;5.83;;;5.33;;
10985;SDS011;5546;48.714;8.738;2023-08-30T11:10:04;6.30;;;5.70;;
10985;SDS011;5546;48.714;8.738;2023-08-30T11:12:30;7.73;;;5.63;;
10985;SDS011;5546;48.714;8.738;2023-08-30T11:14:56;5.60;;;5.10;;
10985;SDS011;5546;48.714;8.738;2023-08-30T11:17:21;7.70;;;5.20;;
10985;SDS011;5546;48.714;8.738;2023-08-30T11:19:50;5.40;;;4.90;;
10985;SDS011;5546;48.714;8.738;2023-08-30T11:22:23;5.73;;;4.37;;
10985;SDS011;5546;48.714;8.738;2023-08-30T11:24:49;5.73;;;4.33;;
10985;SDS011;5546;48.714;8.738;2023-08-30T11:27:18;6.40;;;4.07;;
10985;SDS011;5546;48.714;8.738;2023-08-30T11:29:43;5.80;;;4.20;;
10985;SDS011;5546;48.714;8.738;2023-08-30T11:32:09;5.37;;;4.70;;
10985;SDS011;5546;48.714;8.738;2023-08-30T11:34:35;4.57;;;3.93;;
10985;SDS011;5546;48.714;8.738;2023-08-30T11:37:00;4.83;;;4.30;;
10985;SDS011;5546;48.714;8.738;2023-08-30T11:39:29;4.83;;;4.00;;
10985;SDS011;5546;48.714;8.738;2023-08-30T11:41:54;4.30;;;3.90;;
10985;SDS011;5546;48.714;8.738;2023-08-30T11:44:24;5.67;;;4.10;;
10985;SDS011;5546;48.714;8.738;2023-08-30T11:46:59;4.13;;;3.53;;
10985;SDS011;5546;48.714;8.738;2023-08-30T11:49:25;4.53;;;4.03;;
10985;SDS011;5546;48.714;8.738;2023-08-30T11:51:52;3.50;;;3.20;;
10985;SDS011;5546;48.714;8.738;2023-08-30T11:54:19;3.25;;;2.83;;
10985;SDS011;5546;48.714;8.738;2023-08-30T11:56:45;3.40;;;3.10;;
10985;SDS011;5546;48.714;8.738;2023-08-30T11:59:20;3.22;;;2.72;;
10985;SDS011;5546;48.714;8.738;2023-08-30T12:01:47;2.97;;;2.60;;
10985;SDS011;5546;48.714;8.738;2023-08-30T12:04:17;2.90;;;2.60;;
10985;SDS011;5546;48.714;8.738;2023-08-30T12:06:44;3.03;;;2.72;;
10985;SDS011;5546;48.714;8.738;2023-08-30T12:09:17;3.00;;;2.80;;
10985;SDS011;5546;48.714;8.738;2023-08-30T12:11:42;3.05;;;2.50;;
10985;SDS011;5546;48.714;8.738;2023-08-30T12:14:09;3.30;;;2.92;;
10985;SDS011;5546;48.714;8.738;2023-08-30T12:16:34;3.30;;;3.00;;
10985;SDS011;5546;48.714;8.738;2023-08-30T12:19:09;2.90;;;2.60;;
10985;SDS011;5546;48.714;8.738;2023-08-30T12:21:39;2.78;;;2.58;;
10985;SDS011;5546;48.714;8.738;2023-08-30T12:24:05;3.53;;;2.40;;
10985;SDS011;5546;48.714;8.738;2023-08-30T12:26:31;3.13;;;2.30;;
10985;SDS011;5546;48.714;8.738;2023-08-30T12:29:00;4.05;;;2.33;;
10985;SDS011;5546;48.714;8.738;2023-08-30T12:31:25;2.40;;;2.20;;
10985;SDS011;5546;48.714;8.738;2023-08-30T12:33:53;2.65;;;2.08;;
10985;SDS011;5546;48.714;8.738;2023-08-30T12:36:19;2.63;;;2.10;;
10985;SDS011;5546;48.714;8.738;2023-08-30T12:38:44;2.40;;;2.10;;
10985;SDS011;5546;48.714;8.738;2023-08-30T12:41:10;4.60;;;2.30;;
10985;SDS011;5546;48.714;8.738;2023-08-30T12:43:36;5.50;;;1.92;;
10985;SDS011;5546;48.714;8.738;2023-08-30T12:46:01;2.42;;;2.10;;
10985;SDS011;5546;48.714;8.738;2023-08-30T12:48:27;2.25;;;2.05;;
10985;SDS011;5546;48.714;8.738;2023-08-30T12:50:52;3.22;;;2.10;;
10985;SDS011;5546;48.714;8.738;2023-08-30T12:53:18;2.35;;;2.13;;
10985;SDS011;5546;48.714;8.738;2023-08-30T12:55:43;2.72;;;2.30;;
10985;SDS011;5546;48.714;8.738;2023-08-30T12:58:09;3.08;;;2.47;;
10985;SDS011;5546;48.714;8.738;2023-08-30T13:00:36;2.38;;;2.13;;
10985;SDS011;5546;48.714;8.738;2023-08-30T13:03:02;2.75;;;2.10;;
10985;SDS011;5546;48.714;8.738;2023-08-30T13:05:28;2.65;;;2.28;;
10985;SDS011;5546;48.714;8.738;2023-08-30T13:07:55;2.72;;;2.22;;
10985;SDS011;5546;48.714;8.738;2023-08-30T13:10:21;2.45;;;1.95;;
10985;SDS011;5546;48.714;8.738;2023-08-30T13:12:46;3.28;;;2.20;;
10985;SDS011;5546;48.714;8.738;2023-08-30T13:15:12;2.30;;;2.10;;
10985;SDS011;5546;48.714;8.738;2023-08-30T13:17:37;3.25;;;2.30;;
10985;SDS011;5546;48.714;8.738;2023-08-30T13:20:03;2.50;;;2.30;;
10985;SDS011;5546;48.714;8.738;2023-08-30T13:22:30;2.53;;;2.33;;
10985;SDS011;5546;48.714;8.738;2023-08-30T13:24:55;2.92;;;2.63;;
10985;SDS011;5546;48.714;8.738;2023-08-30T13:27:21;3.58;;;2.70;;
10985;SDS011;5546;48.714;8.738;2023-08-30T13:29:47;3.17;;;2.88;;
10985;SDS011;5546;48.714;8.738;2023-08-30T13:32:12;3.58;;;2.95;;
10985;SDS011;5546;48.714;8.738;2023-08-30T13:34:38;3.45;;;2.88;;
10985;SDS011;5546;48.714;8.738;2023-08-30T13:37:04;3.67;;;2.80;;
10985;SDS011;5546;48.714;8.738;2023-08-30T13:39:30;4.00;;;3.15;;
10985;SDS011;5546;48.714;8.738;2023-08-30T13:41:56;3.08;;;2.80;;
10985;SDS011;5546;48.714;8.738;2023-08-30T13:44:21;3.65;;;2.63;;
10985;SDS011;5546;48.714;8.738;2023-08-30T13:46:47;5.05;;;3.03;;
10985;SDS011;5546;48.714;8.738;2023-08-30T13:49:13;3.78;;;3.35;;
10985;SDS011;5546;48.714;8.738;2023-08-30T13:51:39;3.90;;;3.28;;
10985;SDS011;5546;48.714;8.738;2023-08-30T13:54:05;4.05;;;2.92;;
10985;SDS011;5546;48.714;8.738;2023-08-30T13:56:30;4.25;;;3.47;;
10985;SDS011;5546;48.714;8.738;2023-08-30T13:58:57;4.40;;;3.35;;
10985;SDS011;5546;48.714;8.738;2023-08-30T14:01:22;3.30;;;3.00;;
10985;SDS011;5546;48.714;8.738;2023-08-30T14:03:48;3.33;;;3.03;;
10985;SDS011;5546;48.714;8.738;2023-08-30T14:06:13;3.33;;;3.00;;
10985;SDS011;5546;48.714;8.738;2023-08-30T14:08:39;4.45;;;3.05;;
10985;SDS011;5546;48.714;8.738;2023-08-30T14:11:05;2.95;;;2.75;;
10985;SDS011;5546;48.714;8.738;2023-08-30T14:13:30;3.40;;;2.40;;
10985;SDS011;5546;48.714;8.738;2023-08-30T14:15:59;3.05;;;2.80;;
10985;SDS011;5546;48.714;8.738;2023-08-30T14:18:26;3.72;;;2.53;;
10985;SDS011;5546;48.714;8.738;2023-08-30T14:20:54;4.70;;;4.30;;
10985;SDS011;5546;48.714;8.738;2023-08-30T14:23:22;2.88;;;2.67;;
10985;SDS011;5546;48.714;8.738;2023-08-30T14:25:55;3.35;;;2.65;;
10985;SDS011;5546;48.714;8.738;2023-08-30T14:28:38;5.47;;;2.78;;
10985;SDS011;5546;48.714;8.738;2023-08-30T14:31:08;3.00;;;2.80;;
10985;SDS011;5546;48.714;8.738;2023-08-30T14:33:34;3.08;;;2.78;;
10985;SDS011;5546;48.714;8.738;2023-08-30T14:36:00;3.17;;;2.90;;
10985;SDS011;5546;48.714;8.738;2023-08-30T14:38:28;3.70;;;3.40;;
10985;SDS011;5546;48.714;8.738;2023-08-30T14:41:01;3.33;;;2.90;;
10985;SDS011;5546;48.714;8.738;2023-08-30T14:43:27;4.88;;;2.85;;
10985;SDS011;5546;48.714;8.738;2023-08-30T14:46:02;3.25;;;3.00;;
10985;SDS011;5546;48.714;8.738;2023-08-30T14:48:29;3.33;;;2.83;;
10985;SDS011;5546;48.714;8.738;2023-08-30T14:50:56;3.08;;;2.80;;
10985;SDS011;5546;48.714;8.738;2023-08-30T14:53:22;2.50;;;2.30;;
10985;SDS011;5546;48.714;8.738;2023-08-30T14:55:48;2.70;;;2.50;;
10985;SDS011;5546;48.714;8.738;2023-08-30T14:58:14;3.15;;;2.22;;
10985;SDS011;5546;48.714;8.738;2023-08-30T15:00:39;2.38;;;2.00;;
10985;SDS011;5546;48.714;8.738;2023-08-30T15:03:05;2.38;;;2.17;;